sensor_id;sensor_type;location;lat;lon;timestamp;P1;durP1;ratioP1;P2;durP2;ratioP2
11263;SDS011;5689;48.798;9.070;2022-08-21T00:01:38;0.10;;;0.10;;
11263;SDS011;5689;48.798;9.070;2022-08-21T00:04:06;0.10;;;0.10;;
11263;SDS011;5689;48.798;9.070;2022-08-21T00:06:35;0.10;;;0.10;;
11263;SDS011;5689;48.798;9.070;2022-08-21T00:09:05;0.10;;;0.10;;
11263;SDS011;5689;48.798;9.070;2022-08-21T00:11:35;0.10;;;0.10;;
11263;SDS011;5689;48.798;9.070;2022-08-21T00:14:05;0.10;;;0.10;;
11263;SDS011;5689;48.798;9.070;2022-08-21T00:16:35;0.10;;;0.10;;
11263;SDS011;5689;48.798;9.070;2022-08-21T00:19:04;0.10;;;0.10;;
11263;SDS011;5689;48.798;9.070;2022-08-21T00:21:33;0.10;;;0.10;;
11263;SDS011;5689;48.798;9.070;2022-08-21T00:24:03;0.10;;;0.10;;
11263;SDS011;5689;48.798;9.070;2022-08-21T00:26:32;0.10;;;0.10;;
11263;SDS011;5689;48.798;9.070;2022-08-21T00:29:00;0.10;;;0.10;;
11263;SDS011;5689;48.798;9.070;2022-08-21T00:31:28;0.10;;;0.10;;
11263;SDS011;5689;48.798;9.070;2022-08-21T00:33:56;0.10;;;0.10;;
11263;SDS011;5689;48.798;9.070;2022-08-21T00:36:26;0.10;;;0.10;;
11263;SDS011;5689;48.798;9.070;2022-08-21T00:38:54;0.10;;;0.10;;
11263;SDS011;5689;48.798;9.070;2022-08-21T00:41:23;0.10;;;0.10;;
11263;SDS011;5689;48.798;9.070;2022-08-21T00:43:54;0.10;;;0.10;;
11263;SDS011;5689;48.798;9.070;2022-08-21T00:46:22;0.15;;;0.15;;
11263;SDS011;5689;48.798;9.070;2022-08-21T00:48:50;0.10;;;0.10;;
11263;SDS011;5689;48.798;9.070;2022-08-21T00:51:19;0.20;;;0.20;;
11263;SDS011;5689;48.798;9.070;2022-08-21T00:53:55;0.10;;;0.10;;
11263;SDS011;5689;48.798;9.070;2022-08-21T00:56:26;0.20;;;0.20;;
11263;SDS011;5689;48.798;9.070;2022-08-21T00:58:56;0.75;;;0.75;;
11263;SDS011;5689;48.798;9.070;2022-08-21T01:01:26;1.00;;;1.00;;
11263;SDS011;5689;48.798;9.070;2022-08-21T01:03:54;0.80;;;0.80;;
11263;SDS011;5689;48.798;9.070;2022-08-21T01:06:23;0.93;;;0.93;;
11263;SDS011;5689;48.798;9.070;2022-08-21T01:08:52;1.02;;;1.02;;
11263;SDS011;5689;48.798;9.070;2022-08-21T01:11:21;1.00;;;1.00;;
11263;SDS011;5689;48.798;9.070;2022-08-21T01:13:49;0.80;;;0.80;;
11263;SDS011;5689;48.798;9.070;2022-08-21T01:16:18;0.57;;;0.57;;
11263;SDS011;5689;48.798;9.070;2022-08-21T01:18:49;0.43;;;0.43;;
11263;SDS011;5689;48.798;9.070;2022-08-21T01:21:20;0.45;;;0.45;;
11263;SDS011;5689;48.798;9.070;2022-08-21T01:23:51;0.57;;;0.57;;
11263;SDS011;5689;48.798;9.070;2022-08-21T01:26:21;0.55;;;0.55;;
11263;SDS011;5689;48.798;9.070;2022-08-21T01:28:52;0.38;;;0.38;;
11263;SDS011;5689;48.798;9.070;2022-08-21T01:31:27;0.38;;;0.38;;
11263;SDS011;5689;48.798;9.070;2022-08-21T01:33:55;0.40;;;0.40;;
11263;SDS011;5689;48.798;9.070;2022-08-21T01:36:25;0.50;;;0.50;;
11263;SDS011;5689;48.798;9.070;2022-08-21T01:38:54;0.70;;;0.70;;
11263;SDS011;5689;48.798;9.070;2022-08-21T01:41:22;0.57;;;0.57;;
11263;SDS011;5689;48.798;9.070;2022-08-21T01:43:50;0.95;;;0.95;;
11263;SDS011;5689;48.798;9.070;2022-08-21T01:46:18;1.63;;;1.63;;
11263;SDS011;5689;48.798;9.070;2022-08-21T01:48:46;1.55;;;1.55;;
11263;SDS011;5689;48.798;9.070;2022-08-21T01:51:14;1.40;;;1.40;;
11263;SDS011;5689;48.798;9.070;2022-08-21T01:53:43;1.50;;;1.50;;
11263;SDS011;5689;48.798;9.070;2022-08-21T01:56:13;0.98;;;0.98;;
11263;SDS011;5689;48.798;9.070;2022-08-21T01:58:46;1.40;;;1.40;;
11263;SDS011;5689;48.798;9.070;2022-08-21T02:01:15;2.63;;;2.53;;
11263;SDS011;5689;48.798;9.070;2022-08-21T02:03:43;2.47;;;2.38;;
11263;SDS011;5689;48.798;9.070;2022-08-21T02:06:12;4.18;;;4.05;;
11263;SDS011;5689;48.798;9.070;2022-08-21T02:08:41;4.93;;;4.72;;
11263;SDS011;5689;48.798;9.070;2022-08-21T02:11:11;5.53;;;5.32;;
11263;SDS011;5689;48.798;9.070;2022-08-21T02:13:39;5.45;;;5.25;;
11263;SDS011;5689;48.798;9.070;2022-08-21T02:16:07;8.30;;;7.97;;
11263;SDS011;5689;48.798;9.070;2022-08-21T02:18:35;9.90;;;9.50;;
11263;SDS011;5689;48.798;9.070;2022-08-21T02:21:03;11.43;;;10.95;;
11263;SDS011;5689;48.798;9.070;2022-08-21T02:23:32;10.82;;;10.38;;
11263;SDS011;5689;48.798;9.070;2022-08-21T02:26:03;10.98;;;10.52;;
11263;SDS011;5689;48.798;9.070;2022-08-21T02:28:36;10.77;;;10.32;;
11263;SDS011;5689;48.798;9.070;2022-08-21T02:31:04;13.32;;;12.77;;
11263;SDS011;5689;48.798;9.070;2022-08-21T02:33:33;12.75;;;12.20;;
11263;SDS011;5689;48.798;9.070;2022-08-21T02:36:02;8.77;;;8.43;;
11263;SDS011;5689;48.798;9.070;2022-08-21T02:38:32;13.77;;;13.20;;
11263;SDS011;5689;48.798;9.070;2022-08-21T02:41:06;16.30;;;15.60;;
11263;SDS011;5689;48.798;9.070;2022-08-21T02:43:36;16.08;;;15.40;;
11263;SDS011;5689;48.798;9.070;2022-08-21T02:46:04;16.98;;;16.25;;
11263;SDS011;5689;48.798;9.070;2022-08-21T02:48:33;15.23;;;14.57;;
11263;SDS011;5689;48.798;9.070;2022-08-21T02:51:06;14.75;;;14.13;;
11263;SDS011;5689;48.798;9.070;2022-08-21T02:53:37;16.83;;;16.10;;
11263;SDS011;5689;48.798;9.070;2022-08-21T02:56:07;17.30;;;16.55;;
11263;SDS011;5689;48.798;9.070;2022-08-21T02:58:38;15.25;;;14.60;;
11263;SDS011;5689;48.798;9.070;2022-08-21T03:01:08;16.08;;;15.40;;
11263;SDS011;5689;48.798;9.070;2022-08-21T03:03:37;15.45;;;14.80;;
11263;SDS011;5689;48.798;9.070;2022-08-21T03:06:07;16.58;;;15.88;;
11263;SDS011;5689;48.798;9.070;2022-08-21T03:08:37;15.30;;;14.65;;
11263;SDS011;5689;48.798;9.070;2022-08-21T03:11:06;16.40;;;15.70;;
11263;SDS011;5689;48.798;9.070;2022-08-21T03:13:35;15.93;;;15.23;;
11263;SDS011;5689;48.798;9.070;2022-08-21T03:16:03;13.23;;;12.68;;
11263;SDS011;5689;48.798;9.070;2022-08-21T03:18:33;16.08;;;15.40;;
11263;SDS011;5689;48.798;9.070;2022-08-21T03:21:02;11.73;;;11.25;;
11263;SDS011;5689;48.798;9.070;2022-08-21T03:23:31;11.95;;;11.48;;
11263;SDS011;5689;48.798;9.070;2022-08-21T03:25:59;9.93;;;9.52;;
11263;SDS011;5689;48.798;9.070;2022-08-21T03:28:28;9.30;;;8.93;;
11263;SDS011;5689;48.798;9.070;2022-08-21T03:30:56;8.48;;;8.15;;
11263;SDS011;5689;48.798;9.070;2022-08-21T03:33:24;8.98;;;8.63;;
11263;SDS011;5689;48.798;9.070;2022-08-21T03:35:55;9.15;;;8.77;;
11263;SDS011;5689;48.798;9.070;2022-08-21T03:38:27;7.63;;;7.32;;
11263;SDS011;5689;48.798;9.070;2022-08-21T03:40:57;10.25;;;9.82;;
11263;SDS011;5689;48.798;9.070;2022-08-21T03:43:31;9.55;;;9.18;;
11263;SDS011;5689;48.798;9.070;2022-08-21T03:45:59;8.02;;;7.72;;
11263;SDS011;5689;48.798;9.070;2022-08-21T03:48:29;7.53;;;7.22;;
11263;SDS011;5689;48.798;9.070;2022-08-21T03:50:58;7.18;;;6.90;;
11263;SDS011;5689;48.798;9.070;2022-08-21T03:53:26;6.10;;;5.88;;
11263;SDS011;5689;48.798;9.070;2022-08-21T03:55:54;8.23;;;7.90;;
11263;SDS011;5689;48.798;9.070;2022-08-21T03:58:23;8.10;;;7.80;;
11263;SDS011;5689;48.798;9.070;2022-08-21T04:00:55;6.47;;;6.22;;
11263;SDS011;5689;48.798;9.070;2022-08-21T04:03:25;6.78;;;6.53;;
11263;SDS011;5689;48.798;9.070;2022-08-21T04:05:55;7.53;;;7.22;;
11263;SDS011;5689;48.798;9.070;2022-08-21T04:08:24;8.00;;;7.70;;
11263;SDS011;5689;48.798;9.070;2022-08-21T04:10:54;7.82;;;7.53;;
11263;SDS011;5689;48.798;9.070;2022-08-21T04:13:25;9.13;;;8.77;;
11263;SDS011;5689;48.798;9.070;2022-08-21T04:15:55;8.73;;;8.38;;
11263;SDS011;5689;48.798;9.070;2022-08-21T04:18:25;6.38;;;6.13;;
11263;SDS011;5689;48.798;9.070;2022-08-21T04:20:53;7.22;;;6.95;;
11263;SDS011;5689;48.798;9.070;2022-08-21T04:23:23;7.97;;;7.68;;
11263;SDS011;5689;48.798;9.070;2022-08-21T04:25:52;9.82;;;9.43;;
11263;SDS011;5689;48.798;9.070;2022-08-21T04:28:22;7.57;;;7.28;;
11263;SDS011;5689;48.798;9.070;2022-08-21T04:30:51;7.75;;;7.45;;
11263;SDS011;5689;48.798;9.070;2022-08-21T04:33:32;7.60;;;7.30;;
11263;SDS011;5689;48.798;9.070;2022-08-21T04:36:00;6.43;;;6.20;;
11263;SDS011;5689;48.798;9.070;2022-08-21T04:38:29;7.60;;;7.30;;
11263;SDS011;5689;48.798;9.070;2022-08-21T04:40:58;6.07;;;5.88;;
11263;SDS011;5689;48.798;9.070;2022-08-21T04:43:26;7.03;;;6.75;;
11263;SDS011;5689;48.798;9.070;2022-08-21T04:45:54;8.52;;;8.20;;
11263;SDS011;5689;48.798;9.070;2022-08-21T04:48:22;7.40;;;7.10;;
11263;SDS011;5689;48.798;9.070;2022-08-21T04:50:54;8.60;;;8.27;;
11263;SDS011;5689;48.798;9.070;2022-08-21T04:53:26;9.15;;;8.77;;
11263;SDS011;5689;48.798;9.070;2022-08-21T04:56:05;9.95;;;9.55;;
11263;SDS011;5689;48.798;9.070;2022-08-21T04:58:36;12.13;;;11.63;;
11263;SDS011;5689;48.798;9.070;2022-08-21T05:01:07;7.93;;;7.63;;
11263;SDS011;5689;48.798;9.070;2022-08-21T05:03:38;5.73;;;5.53;;
11263;SDS011;5689;48.798;9.070;2022-08-21T05:06:09;4.33;;;4.20;;
11263;SDS011;5689;48.798;9.070;2022-08-21T05:08:40;6.70;;;6.45;;
11263;SDS011;5689;48.798;9.070;2022-08-21T05:11:09;6.88;;;6.63;;
11263;SDS011;5689;48.798;9.070;2022-08-21T05:13:38;7.35;;;7.05;;
11263;SDS011;5689;48.798;9.070;2022-08-21T05:16:06;8.55;;;8.23;;
11263;SDS011;5689;48.798;9.070;2022-08-21T05:18:35;10.00;;;9.57;;
11263;SDS011;5689;48.798;9.070;2022-08-21T05:21:07;9.77;;;9.38;;
11263;SDS011;5689;48.798;9.070;2022-08-21T05:23:37;12.93;;;12.38;;
11263;SDS011;5689;48.798;9.070;2022-08-21T05:26:05;14.32;;;13.70;;
11263;SDS011;5689;48.798;9.070;2022-08-21T05:28:33;14.60;;;13.98;;
11263;SDS011;5689;48.798;9.070;2022-08-21T05:31:01;14.32;;;13.70;;
11263;SDS011;5689;48.798;9.070;2022-08-21T05:33:29;12.75;;;12.23;;
11263;SDS011;5689;48.798;9.070;2022-08-21T05:35:57;12.38;;;11.85;;
11263;SDS011;5689;48.798;9.070;2022-08-21T05:38:27;13.13;;;12.57;;
11263;SDS011;5689;48.798;9.070;2022-08-21T05:40:58;15.13;;;14.48;;
11263;SDS011;5689;48.798;9.070;2022-08-21T05:43:26;13.50;;;12.93;;
11263;SDS011;5689;48.798;9.070;2022-08-21T05:45:54;12.77;;;12.23;;
11263;SDS011;5689;48.798;9.070;2022-08-21T05:48:23;7.68;;;7.38;;
11263;SDS011;5689;48.798;9.070;2022-08-21T05:51:03;5.68;;;5.47;;
11263;SDS011;5689;48.798;9.070;2022-08-21T05:53:34;6.80;;;6.50;;
11263;SDS011;5689;48.798;9.070;2022-08-21T05:56:03;2.95;;;2.85;;
11263;SDS011;5689;48.798;9.070;2022-08-21T05:58:32;0.40;;;0.40;;
11263;SDS011;5689;48.798;9.070;2022-08-21T06:01:00;0.30;;;0.30;;
11263;SDS011;5689;48.798;9.070;2022-08-21T06:03:32;0.20;;;0.20;;
11263;SDS011;5689;48.798;9.070;2022-08-21T06:06:01;0.20;;;0.20;;
11263;SDS011;5689;48.798;9.070;2022-08-21T06:08:30;0.20;;;0.20;;
11263;SDS011;5689;48.798;9.070;2022-08-21T06:13:44;0.20;;;0.20;;
11263;SDS011;5689;48.798;9.070;2022-08-21T06:16:12;0.20;;;0.20;;
11263;SDS011;5689;48.798;9.070;2022-08-21T06:18:42;0.20;;;0.20;;
11263;SDS011;5689;48.798;9.070;2022-08-21T06:21:11;0.20;;;0.20;;
11263;SDS011;5689;48.798;9.070;2022-08-21T06:23:39;0.20;;;0.20;;
11263;SDS011;5689;48.798;9.070;2022-08-21T06:26:08;0.10;;;0.10;;
11263;SDS011;5689;48.798;9.070;2022-08-21T06:28:39;0.10;;;0.10;;
11263;SDS011;5689;48.798;9.070;2022-08-21T06:31:11;0.10;;;0.10;;
11263;SDS011;5689;48.798;9.070;2022-08-21T06:33:42;0.00;;;0.00;;
11263;SDS011;5689;48.798;9.070;2022-08-21T06:36:12;0.00;;;0.00;;
11263;SDS011;5689;48.798;9.070;2022-08-21T06:38:40;0.10;;;0.10;;
11263;SDS011;5689;48.798;9.070;2022-08-21T06:41:09;0.00;;;0.00;;
11263;SDS011;5689;48.798;9.070;2022-08-21T06:43:38;0.00;;;0.00;;
11263;SDS011;5689;48.798;9.070;2022-08-21T06:46:07;0.10;;;0.10;;
11263;SDS011;5689;48.798;9.070;2022-08-21T06:48:35;0.10;;;0.10;;
11263;SDS011;5689;48.798;9.070;2022-08-21T06:51:03;0.10;;;0.10;;
11263;SDS011;5689;48.798;9.070;2022-08-21T06:53:32;0.00;;;0.00;;
11263;SDS011;5689;48.798;9.070;2022-08-21T06:56:01;0.10;;;0.10;;
11263;SDS011;5689;48.798;9.070;2022-08-21T06:58:30;0.10;;;0.10;;
11263;SDS011;5689;48.798;9.070;2022-08-21T07:00:59;0.00;;;0.00;;
11263;SDS011;5689;48.798;9.070;2022-08-21T07:03:28;0.00;;;0.00;;
11263;SDS011;5689;48.798;9.070;2022-08-21T07:06:03;0.00;;;0.00;;
11263;SDS011;5689;48.798;9.070;2022-08-21T07:08:32;0.00;;;0.00;;
11263;SDS011;5689;48.798;9.070;2022-08-21T07:11:01;0.00;;;0.00;;
11263;SDS011;5689;48.798;9.070;2022-08-21T07:13:34;0.00;;;0.00;;
11263;SDS011;5689;48.798;9.070;2022-08-21T07:16:04;0.00;;;0.00;;
11263;SDS011;5689;48.798;9.070;2022-08-21T07:18:32;0.00;;;0.00;;
11263;SDS011;5689;48.798;9.070;2022-08-21T07:21:00;0.00;;;0.00;;
11263;SDS011;5689;48.798;9.070;2022-08-21T07:23:30;0.00;;;0.00;;
11263;SDS011;5689;48.798;9.070;2022-08-21T07:26:01;0.00;;;0.00;;
11263;SDS011;5689;48.798;9.070;2022-08-21T07:28:40;0.00;;;0.00;;
11263;SDS011;5689;48.798;9.070;2022-08-21T07:31:10;0.00;;;0.00;;
11263;SDS011;5689;48.798;9.070;2022-08-21T07:33:41;0.00;;;0.00;;
11263;SDS011;5689;48.798;9.070;2022-08-21T07:36:10;0.00;;;0.00;;
11263;SDS011;5689;48.798;9.070;2022-08-21T07:38:39;0.00;;;0.00;;
11263;SDS011;5689;48.798;9.070;2022-08-21T07:41:09;0.00;;;0.00;;
11263;SDS011;5689;48.798;9.070;2022-08-21T07:43:41;0.00;;;0.00;;
11263;SDS011;5689;48.798;9.070;2022-08-21T07:46:11;0.00;;;0.00;;
11263;SDS011;5689;48.798;9.070;2022-08-21T07:48:39;0.00;;;0.00;;
11263;SDS011;5689;48.798;9.070;2022-08-21T07:51:09;0.00;;;0.00;;
11263;SDS011;5689;48.798;9.070;2022-08-21T07:53:40;0.00;;;0.00;;
11263;SDS011;5689;48.798;9.070;2022-08-21T07:56:09;0.00;;;0.00;;
11263;SDS011;5689;48.798;9.070;2022-08-21T07:58:39;0.00;;;0.00;;
11263;SDS011;5689;48.798;9.070;2022-08-21T08:01:16;0.00;;;0.00;;
11263;SDS011;5689;48.798;9.070;2022-08-21T08:03:44;0.00;;;0.00;;
11263;SDS011;5689;48.798;9.070;2022-08-21T08:06:13;0.00;;;0.00;;
11263;SDS011;5689;48.798;9.070;2022-08-21T08:08:43;0.00;;;0.00;;
11263;SDS011;5689;48.798;9.070;2022-08-21T08:11:11;0.00;;;0.00;;
11263;SDS011;5689;48.798;9.070;2022-08-21T08:13:41;0.00;;;0.00;;
11263;SDS011;5689;48.798;9.070;2022-08-21T08:16:15;0.00;;;0.00;;
11263;SDS011;5689;48.798;9.070;2022-08-21T08:18:44;0.00;;;0.00;;
11263;SDS011;5689;48.798;9.070;2022-08-21T08:21:14;0.00;;;0.00;;
11263;SDS011;5689;48.798;9.070;2022-08-21T08:23:44;0.00;;;0.00;;
11263;SDS011;5689;48.798;9.070;2022-08-21T08:26:12;0.00;;;0.00;;
11263;SDS011;5689;48.798;9.070;2022-08-21T08:28:41;0.00;;;0.00;;
11263;SDS011;5689;48.798;9.070;2022-08-21T08:31:10;0.00;;;0.00;;
11263;SDS011;5689;48.798;9.070;2022-08-21T08:33:39;0.00;;;0.00;;
11263;SDS011;5689;48.798;9.070;2022-08-21T08:36:12;0.00;;;0.00;;
11263;SDS011;5689;48.798;9.070;2022-08-21T08:38:42;0.00;;;0.00;;
11263;SDS011;5689;48.798;9.070;2022-08-21T08:41:20;0.00;;;0.00;;
11263;SDS011;5689;48.798;9.070;2022-08-21T08:43:50;0.00;;;0.00;;
11263;SDS011;5689;48.798;9.070;2022-08-21T08:46:22;0.00;;;0.00;;
11263;SDS011;5689;48.798;9.070;2022-08-21T08:49:00;0.00;;;0.00;;
11263;SDS011;5689;48.798;9.070;2022-08-21T08:51:35;0.00;;;0.00;;
11263;SDS011;5689;48.798;9.070;2022-08-21T08:54:09;0.00;;;0.00;;
11263;SDS011;5689;48.798;9.070;2022-08-21T08:56:47;0.00;;;0.00;;
11263;SDS011;5689;48.798;9.070;2022-08-21T08:59:19;0.00;;;0.00;;
11263;SDS011;5689;48.798;9.070;2022-08-21T09:01:53;0.00;;;0.00;;
11263;SDS011;5689;48.798;9.070;2022-08-21T09:04:23;0.00;;;0.00;;
11263;SDS011;5689;48.798;9.070;2022-08-21T09:07:01;0.00;;;0.00;;
11263;SDS011;5689;48.798;9.070;2022-08-21T09:09:42;0.00;;;0.00;;
11263;SDS011;5689;48.798;9.070;2022-08-21T09:12:21;0.00;;;0.00;;
11263;SDS011;5689;48.798;9.070;2022-08-21T09:15:01;0.00;;;0.00;;
11263;SDS011;5689;48.798;9.070;2022-08-21T09:17:39;0.00;;;0.00;;
11263;SDS011;5689;48.798;9.070;2022-08-21T09:20:19;0.00;;;0.00;;
11263;SDS011;5689;48.798;9.070;2022-08-21T09:22:58;0.00;;;0.00;;
11263;SDS011;5689;48.798;9.070;2022-08-21T09:25:39;0.00;;;0.00;;
11263;SDS011;5689;48.798;9.070;2022-08-21T09:28:13;0.00;;;0.00;;
11263;SDS011;5689;48.798;9.070;2022-08-21T09:30:41;0.10;;;0.10;;
11263;SDS011;5689;48.798;9.070;2022-08-21T09:33:09;0.00;;;0.00;;
11263;SDS011;5689;48.798;9.070;2022-08-21T09:35:49;0.00;;;0.00;;
11263;SDS011;5689;48.798;9.070;2022-08-21T09:38:28;0.00;;;0.00;;
11263;SDS011;5689;48.798;9.070;2022-08-21T09:40:59;0.00;;;0.00;;
11263;SDS011;5689;48.798;9.070;2022-08-21T09:43:29;0.00;;;0.00;;
11263;SDS011;5689;48.798;9.070;2022-08-21T09:46:03;0.00;;;0.00;;
11263;SDS011;5689;48.798;9.070;2022-08-21T09:48:40;0.00;;;0.00;;
11263;SDS011;5689;48.798;9.070;2022-08-21T09:51:12;0.00;;;0.00;;
11263;SDS011;5689;48.798;9.070;2022-08-21T09:53:43;0.00;;;0.00;;
11263;SDS011;5689;48.798;9.070;2022-08-21T09:56:18;0.00;;;0.00;;
11263;SDS011;5689;48.798;9.070;2022-08-21T09:59:13;0.00;;;0.00;;
11263;SDS011;5689;48.798;9.070;2022-08-21T10:01:43;0.00;;;0.00;;
11263;SDS011;5689;48.798;9.070;2022-08-21T10:04:12;0.00;;;0.00;;
11263;SDS011;5689;48.798;9.070;2022-08-21T10:06:42;0.10;;;0.10;;
11263;SDS011;5689;48.798;9.070;2022-08-21T10:09:10;0.00;;;0.00;;
11263;SDS011;5689;48.798;9.070;2022-08-21T10:11:50;0.00;;;0.00;;
11263;SDS011;5689;48.798;9.070;2022-08-21T10:14:32;0.00;;;0.00;;
11263;SDS011;5689;48.798;9.070;2022-08-21T10:17:14;0.00;;;0.00;;
11263;SDS011;5689;48.798;9.070;2022-08-21T10:19:49;0.00;;;0.00;;
11263;SDS011;5689;48.798;9.070;2022-08-21T10:22:26;0.00;;;0.00;;
11263;SDS011;5689;48.798;9.070;2022-08-21T10:25:05;0.00;;;0.00;;
11263;SDS011;5689;48.798;9.070;2022-08-21T10:27:41;0.10;;;0.10;;
11263;SDS011;5689;48.798;9.070;2022-08-21T10:30:19;0.00;;;0.00;;
11263;SDS011;5689;48.798;9.070;2022-08-21T10:35:45;0.00;;;0.00;;
11263;SDS011;5689;48.798;9.070;2022-08-21T10:38:37;0.00;;;0.00;;
11263;SDS011;5689;48.798;9.070;2022-08-21T10:41:46;0.00;;;0.00;;
11263;SDS011;5689;48.798;9.070;2022-08-21T10:44:26;0.00;;;0.00;;
11263;SDS011;5689;48.798;9.070;2022-08-21T10:47:06;0.00;;;0.00;;
11263;SDS011;5689;48.798;9.070;2022-08-21T10:49:42;0.00;;;0.00;;
11263;SDS011;5689;48.798;9.070;2022-08-21T10:52:26;0.00;;;0.00;;
11263;SDS011;5689;48.798;9.070;2022-08-21T10:55:11;0.00;;;0.00;;
11263;SDS011;5689;48.798;9.070;2022-08-21T10:57:44;0.00;;;0.00;;
11263;SDS011;5689;48.798;9.070;2022-08-21T11:00:17;0.00;;;0.00;;
11263;SDS011;5689;48.798;9.070;2022-08-21T11:02:49;0.00;;;0.00;;
11263;SDS011;5689;48.798;9.070;2022-08-21T11:05:24;0.00;;;0.00;;
11263;SDS011;5689;48.798;9.070;2022-08-21T11:07:58;0.00;;;0.00;;
11263;SDS011;5689;48.798;9.070;2022-08-21T11:10:33;0.00;;;0.00;;
11263;SDS011;5689;48.798;9.070;2022-08-21T11:13:11;0.00;;;0.00;;
11263;SDS011;5689;48.798;9.070;2022-08-21T11:15:43;0.00;;;0.00;;
11263;SDS011;5689;48.798;9.070;2022-08-21T11:18:20;0.00;;;0.00;;
11263;SDS011;5689;48.798;9.070;2022-08-21T11:20:54;0.00;;;0.00;;
11263;SDS011;5689;48.798;9.070;2022-08-21T11:23:33;0.00;;;0.00;;
11263;SDS011;5689;48.798;9.070;2022-08-21T11:26:10;0.00;;;0.00;;
11263;SDS011;5689;48.798;9.070;2022-08-21T11:28:43;0.00;;;0.00;;
11263;SDS011;5689;48.798;9.070;2022-08-21T11:31:18;0.00;;;0.00;;
11263;SDS011;5689;48.798;9.070;2022-08-21T11:34:02;0.00;;;0.00;;
11263;SDS011;5689;48.798;9.070;2022-08-21T11:36:41;0.10;;;0.10;;
11263;SDS011;5689;48.798;9.070;2022-08-21T11:39:17;0.00;;;0.00;;
11263;SDS011;5689;48.798;9.070;2022-08-21T11:41:54;0.00;;;0.00;;
11263;SDS011;5689;48.798;9.070;2022-08-21T11:44:37;0.00;;;0.00;;
11263;SDS011;5689;48.798;9.070;2022-08-21T11:47:19;0.00;;;0.00;;
11263;SDS011;5689;48.798;9.070;2022-08-21T11:50:02;0.00;;;0.00;;
11263;SDS011;5689;48.798;9.070;2022-08-21T11:52:40;0.00;;;0.00;;
11263;SDS011;5689;48.798;9.070;2022-08-21T11:55:12;0.00;;;0.00;;
11263;SDS011;5689;48.798;9.070;2022-08-21T11:57:49;0.00;;;0.00;;
11263;SDS011;5689;48.798;9.070;2022-08-21T12:00:22;0.00;;;0.00;;
11263;SDS011;5689;48.798;9.070;2022-08-21T12:02:54;0.00;;;0.00;;
11263;SDS011;5689;48.798;9.070;2022-08-21T12:05:27;0.00;;;0.00;;
11263;SDS011;5689;48.798;9.070;2022-08-21T12:08:01;0.00;;;0.00;;
11263;SDS011;5689;48.798;9.070;2022-08-21T12:10:32;0.00;;;0.00;;
11263;SDS011;5689;48.798;9.070;2022-08-21T12:13:08;0.00;;;0.00;;
11263;SDS011;5689;48.798;9.070;2022-08-21T12:15:39;0.00;;;0.00;;
11263;SDS011;5689;48.798;9.070;2022-08-21T12:18:19;0.00;;;0.00;;
11263;SDS011;5689;48.798;9.070;2022-08-21T12:21:01;0.00;;;0.00;;
11263;SDS011;5689;48.798;9.070;2022-08-21T12:23:32;0.00;;;0.00;;
11263;SDS011;5689;48.798;9.070;2022-08-21T12:26:23;0.00;;;0.00;;
11263;SDS011;5689;48.798;9.070;2022-08-21T12:29:15;0.05;;;0.05;;
11263;SDS011;5689;48.798;9.070;2022-08-21T12:31:53;0.00;;;0.00;;
11263;SDS011;5689;48.798;9.070;2022-08-21T12:34:25;0.00;;;0.00;;
11263;SDS011;5689;48.798;9.070;2022-08-21T12:37:11;0.00;;;0.00;;
11263;SDS011;5689;48.798;9.070;2022-08-21T12:39:46;0.00;;;0.00;;
11263;SDS011;5689;48.798;9.070;2022-08-21T12:42:19;0.00;;;0.00;;
11263;SDS011;5689;48.798;9.070;2022-08-21T12:44:51;0.00;;;0.00;;
11263;SDS011;5689;48.798;9.070;2022-08-21T12:47:25;0.00;;;0.00;;
11263;SDS011;5689;48.798;9.070;2022-08-21T12:49:59;0.00;;;0.00;;
11263;SDS011;5689;48.798;9.070;2022-08-21T12:52:30;0.00;;;0.00;;
11263;SDS011;5689;48.798;9.070;2022-08-21T12:55:04;0.00;;;0.00;;
11263;SDS011;5689;48.798;9.070;2022-08-21T12:57:35;0.00;;;0.00;;
11263;SDS011;5689;48.798;9.070;2022-08-21T13:00:07;0.00;;;0.00;;
11263;SDS011;5689;48.798;9.070;2022-08-21T13:02:41;0.00;;;0.00;;
11263;SDS011;5689;48.798;9.070;2022-08-21T13:05:14;0.00;;;0.00;;
11263;SDS011;5689;48.798;9.070;2022-08-21T13:07:54;0.00;;;0.00;;
11263;SDS011;5689;48.798;9.070;2022-08-21T13:10:24;0.00;;;0.00;;
11263;SDS011;5689;48.798;9.070;2022-08-21T13:12:54;0.00;;;0.00;;
11263;SDS011;5689;48.798;9.070;2022-08-21T13:15:26;0.00;;;0.00;;
11263;SDS011;5689;48.798;9.070;2022-08-21T13:17:56;0.00;;;0.00;;
11263;SDS011;5689;48.798;9.070;2022-08-21T13:20:29;0.00;;;0.00;;
11263;SDS011;5689;48.798;9.070;2022-08-21T13:22:59;0.00;;;0.00;;
11263;SDS011;5689;48.798;9.070;2022-08-21T13:25:34;0.00;;;0.00;;
11263;SDS011;5689;48.798;9.070;2022-08-21T13:28:05;0.00;;;0.00;;
11263;SDS011;5689;48.798;9.070;2022-08-21T13:30:39;0.00;;;0.00;;
11263;SDS011;5689;48.798;9.070;2022-08-21T13:33:11;0.00;;;0.00;;
11263;SDS011;5689;48.798;9.070;2022-08-21T13:35:48;0.00;;;0.00;;
11263;SDS011;5689;48.798;9.070;2022-08-21T13:38:18;0.00;;;0.00;;
11263;SDS011;5689;48.798;9.070;2022-08-21T13:40:50;0.00;;;0.00;;
11263;SDS011;5689;48.798;9.070;2022-08-21T13:43:25;0.00;;;0.00;;
11263;SDS011;5689;48.798;9.070;2022-08-21T13:46:06;0.00;;;0.00;;
11263;SDS011;5689;48.798;9.070;2022-08-21T13:48:37;0.00;;;0.00;;
11263;SDS011;5689;48.798;9.070;2022-08-21T13:51:05;0.00;;;0.00;;
11263;SDS011;5689;48.798;9.070;2022-08-21T13:53:35;0.00;;;0.00;;
11263;SDS011;5689;48.798;9.070;2022-08-21T13:56:21;0.00;;;0.00;;
11263;SDS011;5689;48.798;9.070;2022-08-21T13:58:51;0.00;;;0.00;;
11263;SDS011;5689;48.798;9.070;2022-08-21T14:01:23;0.00;;;0.00;;
11263;SDS011;5689;48.798;9.070;2022-08-21T14:04:01;0.00;;;0.00;;
11263;SDS011;5689;48.798;9.070;2022-08-21T14:06:35;0.00;;;0.00;;
11263;SDS011;5689;48.798;9.070;2022-08-21T14:09:08;0.00;;;0.00;;
11263;SDS011;5689;48.798;9.070;2022-08-21T14:11:37;0.00;;;0.00;;
11263;SDS011;5689;48.798;9.070;2022-08-21T14:14:12;0.00;;;0.00;;
11263;SDS011;5689;48.798;9.070;2022-08-21T14:16:55;0.00;;;0.00;;
11263;SDS011;5689;48.798;9.070;2022-08-21T14:19:27;0.00;;;0.00;;
11263;SDS011;5689;48.798;9.070;2022-08-21T14:24:49;0.00;;;0.00;;
11263;SDS011;5689;48.798;9.070;2022-08-21T14:27:25;0.00;;;0.00;;
11263;SDS011;5689;48.798;9.070;2022-08-21T14:29:57;0.00;;;0.00;;
11263;SDS011;5689;48.798;9.070;2022-08-21T14:32:28;0.00;;;0.00;;
11263;SDS011;5689;48.798;9.070;2022-08-21T14:35:04;0.00;;;0.00;;
11263;SDS011;5689;48.798;9.070;2022-08-21T14:37:33;0.00;;;0.00;;
11263;SDS011;5689;48.798;9.070;2022-08-21T14:40:03;0.00;;;0.00;;
11263;SDS011;5689;48.798;9.070;2022-08-21T14:42:31;0.00;;;0.00;;
11263;SDS011;5689;48.798;9.070;2022-08-21T14:45:06;0.00;;;0.00;;
11263;SDS011;5689;48.798;9.070;2022-08-21T14:47:40;0.00;;;0.00;;
11263;SDS011;5689;48.798;9.070;2022-08-21T14:50:10;0.00;;;0.00;;
11263;SDS011;5689;48.798;9.070;2022-08-21T14:52:41;0.00;;;0.00;;
11263;SDS011;5689;48.798;9.070;2022-08-21T14:55:12;0.00;;;0.00;;
11263;SDS011;5689;48.798;9.070;2022-08-21T14:57:42;0.00;;;0.00;;
11263;SDS011;5689;48.798;9.070;2022-08-21T15:00:14;0.00;;;0.00;;
11263;SDS011;5689;48.798;9.070;2022-08-21T15:02:45;0.00;;;0.00;;
11263;SDS011;5689;48.798;9.070;2022-08-21T15:05:13;0.00;;;0.00;;
11263;SDS011;5689;48.798;9.070;2022-08-21T15:07:42;0.00;;;0.00;;
11263;SDS011;5689;48.798;9.070;2022-08-21T15:10:11;0.00;;;0.00;;
11263;SDS011;5689;48.798;9.070;2022-08-21T15:12:39;0.00;;;0.00;;
11263;SDS011;5689;48.798;9.070;2022-08-21T15:15:07;0.00;;;0.00;;
11263;SDS011;5689;48.798;9.070;2022-08-21T15:17:36;0.00;;;0.00;;
11263;SDS011;5689;48.798;9.070;2022-08-21T15:20:07;0.00;;;0.00;;
11263;SDS011;5689;48.798;9.070;2022-08-21T15:22:36;0.00;;;0.00;;
11263;SDS011;5689;48.798;9.070;2022-08-21T15:25:05;0.00;;;0.00;;
11263;SDS011;5689;48.798;9.070;2022-08-21T15:27:34;0.00;;;0.00;;
11263;SDS011;5689;48.798;9.070;2022-08-21T15:30:02;0.00;;;0.00;;
11263;SDS011;5689;48.798;9.070;2022-08-21T15:32:31;0.00;;;0.00;;
11263;SDS011;5689;48.798;9.070;2022-08-21T15:34:59;0.00;;;0.00;;